sensor_id;sensor_type;location;lat;lon;timestamp;temperature;humidity
298;DHT22;133;49.626;9.680;2023-12-20T00:00:52;5.70;98.70
298;DHT22;133;49.626;9.680;2023-12-20T00:03:18;5.70;98.70
298;DHT22;133;49.626;9.680;2023-12-20T00:05:43;5.70;98.70
298;DHT22;133;49.626;9.680;2023-12-20T00:08:09;5.70;98.70
298;DHT22;133;49.626;9.680;2023-12-20T00:10:35;5.70;98.70
298;DHT22;133;49.626;9.680;2023-12-20T00:13:01;5.70;98.70
298;DHT22;133;49.626;9.680;2023-12-20T00:15:26;5.70;98.70
298;DHT22;133;49.626;9.680;2023-12-20T00:17:52;5.70;98.70
298;DHT22;133;49.626;9.680;2023-12-20T00:20:17;5.70;98.70
298;DHT22;133;49.626;9.680;2023-12-20T00:22:43;5.70;98.70
298;DHT22;133;49.626;9.680;2023-12-20T00:25:09;5.70;98.70
298;DHT22;133;49.626;9.680;2023-12-20T00:27:34;5.70;98.70
298;DHT22;133;49.626;9.680;2023-12-20T00:30:00;5.70;98.70
298;DHT22;133;49.626;9.680;2023-12-20T00:32:25;5.70;98.70
298;DHT22;133;49.626;9.680;2023-12-20T00:34:51;5.70;98.70
298;DHT22;133;49.626;9.680;2023-12-20T00:37:18;5.70;98.70
298;DHT22;133;49.626;9.680;2023-12-20T00:39:43;5.70;98.70
298;DHT22;133;49.626;9.680;2023-12-20T00:42:09;5.80;98.70
298;DHT22;133;49.626;9.680;2023-12-20T00:44:34;5.80;98.70
298;DHT22;133;49.626;9.680;2023-12-20T00:47:00;5.80;98.70
298;DHT22;133;49.626;9.680;2023-12-20T00:49:26;5.80;98.70
298;DHT22;133;49.626;9.680;2023-12-20T00:51:52;5.80;98.70
298;DHT22;133;49.626;9.680;2023-12-20T00:54:18;5.90;98.70
298;DHT22;133;49.626;9.680;2023-12-20T00:56:43;5.90;98.70
298;DHT22;133;49.626;9.680;2023-12-20T00:59:10;5.90;98.70
298;DHT22;133;49.626;9.680;2023-12-20T01:01:36;6.00;98.70
298;DHT22;133;49.626;9.680;2023-12-20T01:04:01;5.90;98.70
298;DHT22;133;49.626;9.680;2023-12-20T01:06:27;5.90;98.70
298;DHT22;133;49.626;9.680;2023-12-20T01:08:53;5.90;98.70
298;DHT22;133;49.626;9.680;2023-12-20T01:11:19;6.00;98.70
298;DHT22;133;49.626;9.680;2023-12-20T01:13:44;6.00;98.70
298;DHT22;133;49.626;9.680;2023-12-20T01:16:11;6.00;98.70
298;DHT22;133;49.626;9.680;2023-12-20T01:18:37;6.00;98.70
298;DHT22;133;49.626;9.680;2023-12-20T01:21:04;6.00;98.70
298;DHT22;133;49.626;9.680;2023-12-20T01:23:30;5.90;98.70
298;DHT22;133;49.626;9.680;2023-12-20T01:25:56;5.90;98.70
298;DHT22;133;49.626;9.680;2023-12-20T01:28:21;5.90;98.70
298;DHT22;133;49.626;9.680;2023-12-20T01:30:47;5.90;98.70
298;DHT22;133;49.626;9.680;2023-12-20T01:33:13;5.90;98.70
298;DHT22;133;49.626;9.680;2023-12-20T01:35:39;5.90;98.70
298;DHT22;133;49.626;9.680;2023-12-20T01:38:05;5.80;98.70
298;DHT22;133;49.626;9.680;2023-12-20T01:40:30;5.80;98.70
298;DHT22;133;49.626;9.680;2023-12-20T01:43:00;5.80;98.70
298;DHT22;133;49.626;9.680;2023-12-20T01:45:28;5.80;98.70
298;DHT22;133;49.626;9.680;2023-12-20T01:47:55;5.70;98.70
298;DHT22;133;49.626;9.680;2023-12-20T01:50:21;5.70;98.70
298;DHT22;133;49.626;9.680;2023-12-20T01:52:47;5.70;98.70
298;DHT22;133;49.626;9.680;2023-12-20T01:55:13;5.80;98.70
298;DHT22;133;49.626;9.680;2023-12-20T01:57:44;5.70;98.70
298;DHT22;133;49.626;9.680;2023-12-20T02:00:12;5.70;98.70
298;DHT22;133;49.626;9.680;2023-12-20T02:02:39;5.70;98.70
298;DHT22;133;49.626;9.680;2023-12-20T02:05:06;5.70;98.70
298;DHT22;133;49.626;9.680;2023-12-20T02:07:32;5.70;98.70
298;DHT22;133;49.626;9.680;2023-12-20T02:09:58;5.70;98.70
298;DHT22;133;49.626;9.680;2023-12-20T02:12:24;5.80;98.70
298;DHT22;133;49.626;9.680;2023-12-20T02:14:49;5.80;98.70
298;DHT22;133;49.626;9.680;2023-12-20T02:17:16;5.70;98.70
298;DHT22;133;49.626;9.680;2023-12-20T02:19:41;5.70;98.70
298;DHT22;133;49.626;9.680;2023-12-20T02:22:11;5.60;98.70
298;DHT22;133;49.626;9.680;2023-12-20T02:24:37;5.60;98.70
298;DHT22;133;49.626;9.680;2023-12-20T02:27:03;5.60;98.70
298;DHT22;133;49.626;9.680;2023-12-20T02:29:30;5.50;98.70
298;DHT22;133;49.626;9.680;2023-12-20T02:31:56;5.60;98.70
298;DHT22;133;49.626;9.680;2023-12-20T02:34:23;5.60;98.70
298;DHT22;133;49.626;9.680;2023-12-20T02:36:48;5.60;98.70
298;DHT22;133;49.626;9.680;2023-12-20T02:39:15;5.60;98.70
298;DHT22;133;49.626;9.680;2023-12-20T02:41:41;5.60;98.70
298;DHT22;133;49.626;9.680;2023-12-20T02:44:06;5.60;98.70
298;DHT22;133;49.626;9.680;2023-12-20T02:46:32;5.60;98.70
298;DHT22;133;49.626;9.680;2023-12-20T02:48:57;5.60;98.70
298;DHT22;133;49.626;9.680;2023-12-20T02:51:23;5.70;98.70
298;DHT22;133;49.626;9.680;2023-12-20T02:53:48;5.70;98.70
298;DHT22;133;49.626;9.680;2023-12-20T02:56:14;5.70;98.70
298;DHT22;133;49.626;9.680;2023-12-20T02:58:40;5.70;98.70
298;DHT22;133;49.626;9.680;2023-12-20T03:01:05;5.60;98.70
298;DHT22;133;49.626;9.680;2023-12-20T03:03:32;5.60;98.70
298;DHT22;133;49.626;9.680;2023-12-20T03:05:57;5.60;98.70
298;DHT22;133;49.626;9.680;2023-12-20T03:08:23;5.60;98.70
298;DHT22;133;49.626;9.680;2023-12-20T03:10:49;5.60;98.70
298;DHT22;133;49.626;9.680;2023-12-20T03:13:14;5.60;98.70
298;DHT22;133;49.626;9.680;2023-12-20T03:15:40;5.50;98.70
298;DHT22;133;49.626;9.680;2023-12-20T03:18:06;5.40;98.70
298;DHT22;133;49.626;9.680;2023-12-20T03:20:31;5.40;98.70
298;DHT22;133;49.626;9.680;2023-12-20T03:23:00;5.40;98.70
298;DHT22;133;49.626;9.680;2023-12-20T03:25:26;5.40;98.70
298;DHT22;133;49.626;9.680;2023-12-20T03:27:52;5.50;98.70
298;DHT22;133;49.626;9.680;2023-12-20T03:30:19;5.50;98.70
298;DHT22;133;49.626;9.680;2023-12-20T03:32:45;5.40;98.70
298;DHT22;133;49.626;9.680;2023-12-20T03:35:11;5.50;98.70
298;DHT22;133;49.626;9.680;2023-12-20T03:37:37;5.50;98.70
298;DHT22;133;49.626;9.680;2023-12-20T03:40:03;5.50;98.70
298;DHT22;133;49.626;9.680;2023-12-20T03:42:28;5.50;98.70
298;DHT22;133;49.626;9.680;2023-12-20T03:44:54;5.50;98.70
298;DHT22;133;49.626;9.680;2023-12-20T03:47:19;5.50;98.70
298;DHT22;133;49.626;9.680;2023-12-20T03:49:46;5.50;98.70
298;DHT22;133;49.626;9.680;2023-12-20T03:52:12;5.50;98.70
298;DHT22;133;49.626;9.680;2023-12-20T03:54:38;5.40;98.70
298;DHT22;133;49.626;9.680;2023-12-20T03:57:05;5.50;98.70
298;DHT22;133;49.626;9.680;2023-12-20T03:59:36;5.50;98.70
298;DHT22;133;49.626;9.680;2023-12-20T04:02:03;5.30;98.70
298;DHT22;133;49.626;9.680;2023-12-20T04:04:28;5.30;98.70
298;DHT22;133;49.626;9.680;2023-12-20T04:06:54;5.30;98.70
298;DHT22;133;49.626;9.680;2023-12-20T04:09:19;5.30;98.70
298;DHT22;133;49.626;9.680;2023-12-20T04:11:45;5.40;98.70
298;DHT22;133;49.626;9.680;2023-12-20T04:14:12;5.40;98.70
298;DHT22;133;49.626;9.680;2023-12-20T04:16:38;5.40;98.70
298;DHT22;133;49.626;9.680;2023-12-20T04:19:04;5.40;98.70
298;DHT22;133;49.626;9.680;2023-12-20T04:21:30;5.40;98.70
298;DHT22;133;49.626;9.680;2023-12-20T04:23:56;5.40;98.70
298;DHT22;133;49.626;9.680;2023-12-20T04:26:21;5.40;98.70
298;DHT22;133;49.626;9.680;2023-12-20T04:28:47;5.40;98.70
298;DHT22;133;49.626;9.680;2023-12-20T04:31:12;5.50;98.70
298;DHT22;133;49.626;9.680;2023-12-20T04:33:38;5.50;98.70
298;DHT22;133;49.626;9.680;2023-12-20T04:36:04;5.50;98.70
298;DHT22;133;49.626;9.680;2023-12-20T04:38:30;5.50;98.70
298;DHT22;133;49.626;9.680;2023-12-20T04:40:55;5.50;98.70
298;DHT22;133;49.626;9.680;2023-12-20T04:43:21;5.60;98.70
298;DHT22;133;49.626;9.680;2023-12-20T04:45:47;5.50;98.70
298;DHT22;133;49.626;9.680;2023-12-20T04:48:13;5.50;98.70
298;DHT22;133;49.626;9.680;2023-12-20T04:50:38;5.50;98.70
298;DHT22;133;49.626;9.680;2023-12-20T04:53:04;5.50;98.70
298;DHT22;133;49.626;9.680;2023-12-20T04:55:29;5.40;98.70
298;DHT22;133;49.626;9.680;2023-12-20T04:57:55;5.40;98.70
298;DHT22;133;49.626;9.680;2023-12-20T05:00:22;5.30;98.70
298;DHT22;133;49.626;9.680;2023-12-20T05:02:47;5.40;98.70
298;DHT22;133;49.626;9.680;2023-12-20T05:05:13;5.30;98.70
298;DHT22;133;49.626;9.680;2023-12-20T05:07:40;5.30;98.70
298;DHT22;133;49.626;9.680;2023-12-20T05:10:06;5.30;98.70
298;DHT22;133;49.626;9.680;2023-12-20T05:12:33;5.40;98.70
298;DHT22;133;49.626;9.680;2023-12-20T05:14:59;5.40;98.70
298;DHT22;133;49.626;9.680;2023-12-20T05:17:26;5.40;98.70
298;DHT22;133;49.626;9.680;2023-12-20T05:19:52;5.40;98.70
298;DHT22;133;49.626;9.680;2023-12-20T05:22:19;5.40;98.70
298;DHT22;133;49.626;9.680;2023-12-20T05:24:45;5.30;98.70
298;DHT22;133;49.626;9.680;2023-12-20T05:27:10;5.30;98.70
298;DHT22;133;49.626;9.680;2023-12-20T05:29:37;5.30;98.70
298;DHT22;133;49.626;9.680;2023-12-20T05:32:02;5.30;98.70
298;DHT22;133;49.626;9.680;2023-12-20T05:34:30;5.30;98.70
298;DHT22;133;49.626;9.680;2023-12-20T05:36:56;5.30;98.70
298;DHT22;133;49.626;9.680;2023-12-20T05:39:21;5.40;98.70
298;DHT22;133;49.626;9.680;2023-12-20T05:41:47;5.40;98.70
298;DHT22;133;49.626;9.680;2023-12-20T05:44:13;5.40;98.70
298;DHT22;133;49.626;9.680;2023-12-20T05:46:38;5.40;98.70
298;DHT22;133;49.626;9.680;2023-12-20T05:49:05;5.40;98.70
298;DHT22;133;49.626;9.680;2023-12-20T05:51:31;5.40;98.70
298;DHT22;133;49.626;9.680;2023-12-20T05:53:56;5.40;98.70
298;DHT22;133;49.626;9.680;2023-12-20T05:56:22;5.40;98.70
298;DHT22;133;49.626;9.680;2023-12-20T05:58:48;5.40;98.70
298;DHT22;133;49.626;9.680;2023-12-20T06:01:14;5.50;98.70
298;DHT22;133;49.626;9.680;2023-12-20T06:03:42;5.50;98.70
298;DHT22;133;49.626;9.680;2023-12-20T06:06:09;5.50;98.70
298;DHT22;133;49.626;9.680;2023-12-20T06:08:36;5.50;98.70
298;DHT22;133;49.626;9.680;2023-12-20T06:11:02;5.50;98.70
298;DHT22;133;49.626;9.680;2023-12-20T06:13:27;5.50;98.70
298;DHT22;133;49.626;9.680;2023-12-20T06:15:54;5.50;98.70
298;DHT22;133;49.626;9.680;2023-12-20T06:18:21;5.60;98.70
298;DHT22;133;49.626;9.680;2023-12-20T06:20:47;5.60;98.70
298;DHT22;133;49.626;9.680;2023-12-20T06:23:12;5.60;98.70
298;DHT22;133;49.626;9.680;2023-12-20T06:25:38;5.70;98.70
298;DHT22;133;49.626;9.680;2023-12-20T06:28:04;5.70;98.70
298;DHT22;133;49.626;9.680;2023-12-20T06:30:30;5.70;98.70
298;DHT22;133;49.626;9.680;2023-12-20T06:32:58;5.80;98.70
298;DHT22;133;49.626;9.680;2023-12-20T06:35:23;5.80;98.70
298;DHT22;133;49.626;9.680;2023-12-20T06:37:49;5.80;98.70
298;DHT22;133;49.626;9.680;2023-12-20T06:40:15;5.80;98.70
298;DHT22;133;49.626;9.680;2023-12-20T06:42:41;5.80;98.70
298;DHT22;133;49.626;9.680;2023-12-20T06:45:07;5.80;98.70
298;DHT22;133;49.626;9.680;2023-12-20T06:47:33;5.80;98.70
298;DHT22;133;49.626;9.680;2023-12-20T06:49:59;5.80;98.70
298;DHT22;133;49.626;9.680;2023-12-20T06:52:24;5.80;98.70
298;DHT22;133;49.626;9.680;2023-12-20T06:54:50;5.80;98.70
298;DHT22;133;49.626;9.680;2023-12-20T06:57:16;5.80;98.70
298;DHT22;133;49.626;9.680;2023-12-20T06:59:41;5.90;98.70
298;DHT22;133;49.626;9.680;2023-12-20T07:02:09;5.80;98.70
298;DHT22;133;49.626;9.680;2023-12-20T07:04:38;5.80;98.70
298;DHT22;133;49.626;9.680;2023-12-20T07:07:04;5.70;98.60
298;DHT22;133;49.626;9.680;2023-12-20T07:09:31;5.70;98.60
298;DHT22;133;49.626;9.680;2023-12-20T07:11:56;5.60;97.80
298;DHT22;133;49.626;9.680;2023-12-20T07:14:22;5.70;97.50
298;DHT22;133;49.626;9.680;2023-12-20T07:16:47;5.70;97.20
298;DHT22;133;49.626;9.680;2023-12-20T07:19:13;5.60;97.30
298;DHT22;133;49.626;9.680;2023-12-20T07:21:39;5.60;96.80
298;DHT22;133;49.626;9.680;2023-12-20T07:24:04;5.70;97.20
298;DHT22;133;49.626;9.680;2023-12-20T07:26:30;5.60;96.60
298;DHT22;133;49.626;9.680;2023-12-20T07:28:55;5.50;96.60
298;DHT22;133;49.626;9.680;2023-12-20T07:31:21;5.50;96.30
298;DHT22;133;49.626;9.680;2023-12-20T07:33:47;5.50;96.40
298;DHT22;133;49.626;9.680;2023-12-20T07:36:13;5.40;96.30
298;DHT22;133;49.626;9.680;2023-12-20T07:38:38;5.50;96.70
298;DHT22;133;49.626;9.680;2023-12-20T07:41:04;5.40;96.70
298;DHT22;133;49.626;9.680;2023-12-20T07:43:30;5.40;96.70
298;DHT22;133;49.626;9.680;2023-12-20T07:45:56;5.40;96.70
298;DHT22;133;49.626;9.680;2023-12-20T07:48:21;5.40;97.00
298;DHT22;133;49.626;9.680;2023-12-20T07:50:47;5.40;97.10
298;DHT22;133;49.626;9.680;2023-12-20T07:53:13;5.40;97.20
298;DHT22;133;49.626;9.680;2023-12-20T07:55:40;5.30;97.20
298;DHT22;133;49.626;9.680;2023-12-20T07:58:06;5.30;97.20
298;DHT22;133;49.626;9.680;2023-12-20T08:00:31;5.20;97.60
298;DHT22;133;49.626;9.680;2023-12-20T08:02:57;5.30;97.70
298;DHT22;133;49.626;9.680;2023-12-20T08:05:23;5.30;97.50
298;DHT22;133;49.626;9.680;2023-12-20T08:07:48;5.20;97.50
298;DHT22;133;49.626;9.680;2023-12-20T08:10:14;5.20;97.70
298;DHT22;133;49.626;9.680;2023-12-20T08:12:39;5.20;98.00
298;DHT22;133;49.626;9.680;2023-12-20T08:15:05;5.20;97.80
298;DHT22;133;49.626;9.680;2023-12-20T08:17:31;5.20;97.80
298;DHT22;133;49.626;9.680;2023-12-20T08:19:58;5.20;97.80
298;DHT22;133;49.626;9.680;2023-12-20T08:22:24;5.20;97.60
298;DHT22;133;49.626;9.680;2023-12-20T08:24:50;5.20;97.60
298;DHT22;133;49.626;9.680;2023-12-20T08:27:15;5.20;97.30
298;DHT22;133;49.626;9.680;2023-12-20T08:29:43;5.20;97.00
298;DHT22;133;49.626;9.680;2023-12-20T08:32:10;5.20;96.90
298;DHT22;133;49.626;9.680;2023-12-20T08:34:35;5.20;96.60
298;DHT22;133;49.626;9.680;2023-12-20T08:37:01;5.20;97.00
298;DHT22;133;49.626;9.680;2023-12-20T08:39:26;5.20;96.90
298;DHT22;133;49.626;9.680;2023-12-20T08:41:52;5.20;97.00
298;DHT22;133;49.626;9.680;2023-12-20T08:44:19;5.20;96.90
298;DHT22;133;49.626;9.680;2023-12-20T08:46:47;5.20;97.10
298;DHT22;133;49.626;9.680;2023-12-20T08:49:14;5.30;96.80
298;DHT22;133;49.626;9.680;2023-12-20T08:51:40;5.40;96.70
298;DHT22;133;49.626;9.680;2023-12-20T08:54:06;5.50;96.20
298;DHT22;133;49.626;9.680;2023-12-20T08:56:33;5.50;95.40
298;DHT22;133;49.626;9.680;2023-12-20T08:58:59;5.60;95.50
298;DHT22;133;49.626;9.680;2023-12-20T09:01:25;5.70;94.40
298;DHT22;133;49.626;9.680;2023-12-20T09:03:50;5.70;94.30
298;DHT22;133;49.626;9.680;2023-12-20T09:06:16;5.80;94.40
298;DHT22;133;49.626;9.680;2023-12-20T09:08:41;5.90;94.20
298;DHT22;133;49.626;9.680;2023-12-20T09:11:07;5.90;93.50
298;DHT22;133;49.626;9.680;2023-12-20T09:13:33;6.00;93.10
298;DHT22;133;49.626;9.680;2023-12-20T09:15:58;5.90;93.40
298;DHT22;133;49.626;9.680;2023-12-20T09:18:24;6.00;93.50
298;DHT22;133;49.626;9.680;2023-12-20T09:20:50;6.00;93.00
298;DHT22;133;49.626;9.680;2023-12-20T09:23:16;6.10;92.70
298;DHT22;133;49.626;9.680;2023-12-20T09:25:42;6.10;92.80
298;DHT22;133;49.626;9.680;2023-12-20T09:28:08;6.20;93.10
298;DHT22;133;49.626;9.680;2023-12-20T09:30:34;6.40;92.80
298;DHT22;133;49.626;9.680;2023-12-20T09:33:00;6.40;92.00
298;DHT22;133;49.626;9.680;2023-12-20T09:35:26;6.30;92.40
298;DHT22;133;49.626;9.680;2023-12-20T09:37:52;6.40;92.00
298;DHT22;133;49.626;9.680;2023-12-20T09:40:20;6.50;91.60
298;DHT22;133;49.626;9.680;2023-12-20T09:42:56;6.60;91.50
298;DHT22;133;49.626;9.680;2023-12-20T09:45:22;6.60;92.00
298;DHT22;133;49.626;9.680;2023-12-20T09:47:50;6.60;91.50
298;DHT22;133;49.626;9.680;2023-12-20T09:50:18;6.60;91.60
298;DHT22;133;49.626;9.680;2023-12-20T09:52:48;6.60;91.60
298;DHT22;133;49.626;9.680;2023-12-20T09:55:15;6.60;91.60
298;DHT22;133;49.626;9.680;2023-12-20T09:57:42;6.50;91.00
298;DHT22;133;49.626;9.680;2023-12-20T10:00:08;6.50;91.20
298;DHT22;133;49.626;9.680;2023-12-20T10:02:34;6.50;91.50
298;DHT22;133;49.626;9.680;2023-12-20T10:05:02;6.50;91.70
298;DHT22;133;49.626;9.680;2023-12-20T10:07:28;6.40;91.50
298;DHT22;133;49.626;9.680;2023-12-20T10:09:54;6.50;92.00
298;DHT22;133;49.626;9.680;2023-12-20T10:12:21;6.50;91.80
298;DHT22;133;49.626;9.680;2023-12-20T10:14:47;6.50;91.50
298;DHT22;133;49.626;9.680;2023-12-20T10:17:12;6.60;91.60
298;DHT22;133;49.626;9.680;2023-12-20T10:19:38;6.60;91.70
298;DHT22;133;49.626;9.680;2023-12-20T10:22:06;6.60;91.00
298;DHT22;133;49.626;9.680;2023-12-20T10:24:32;6.60;91.40
298;DHT22;133;49.626;9.680;2023-12-20T10:27:04;6.60;90.30
298;DHT22;133;49.626;9.680;2023-12-20T10:29:36;6.70;90.90
298;DHT22;133;49.626;9.680;2023-12-20T10:32:26;6.60;90.90
298;DHT22;133;49.626;9.680;2023-12-20T10:34:53;6.60;91.00
298;DHT22;133;49.626;9.680;2023-12-20T10:37:19;6.70;90.80
298;DHT22;133;49.626;9.680;2023-12-20T10:39:50;6.80;90.90
298;DHT22;133;49.626;9.680;2023-12-20T10:42:17;6.90;90.90
298;DHT22;133;49.626;9.680;2023-12-20T10:44:43;6.80;89.80
298;DHT22;133;49.626;9.680;2023-12-20T10:47:12;6.80;90.60
298;DHT22;133;49.626;9.680;2023-12-20T10:49:39;6.90;90.40
298;DHT22;133;49.626;9.680;2023-12-20T10:52:06;6.90;90.30
298;DHT22;133;49.626;9.680;2023-12-20T10:54:33;6.80;90.30
298;DHT22;133;49.626;9.680;2023-12-20T10:56:59;6.80;90.60
298;DHT22;133;49.626;9.680;2023-12-20T10:59:27;6.80;90.70
298;DHT22;133;49.626;9.680;2023-12-20T11:01:55;7.00;90.80
298;DHT22;133;49.626;9.680;2023-12-20T11:04:28;6.90;89.90
298;DHT22;133;49.626;9.680;2023-12-20T11:07:01;6.80;89.30
298;DHT22;133;49.626;9.680;2023-12-20T11:09:35;6.90;90.40
298;DHT22;133;49.626;9.680;2023-12-20T11:12:15;7.00;90.50
298;DHT22;133;49.626;9.680;2023-12-20T11:14:46;7.10;89.60
298;DHT22;133;49.626;9.680;2023-12-20T11:17:12;7.10;89.40
298;DHT22;133;49.626;9.680;2023-12-20T11:22:28;7.10;88.80
298;DHT22;133;49.626;9.680;2023-12-20T11:24:58;7.00;89.00
298;DHT22;133;49.626;9.680;2023-12-20T11:27:24;6.90;88.70
298;DHT22;133;49.626;9.680;2023-12-20T11:29:55;6.90;89.40
298;DHT22;133;49.626;9.680;2023-12-20T11:37:33;6.80;88.60
298;DHT22;133;49.626;9.680;2023-12-20T11:40:07;6.90;88.50
298;DHT22;133;49.626;9.680;2023-12-20T11:42:39;6.90;88.70
298;DHT22;133;49.626;9.680;2023-12-20T11:45:08;6.80;89.30
298;DHT22;133;49.626;9.680;2023-12-20T11:47:34;6.90;89.10
298;DHT22;133;49.626;9.680;2023-12-20T11:50:00;7.20;88.80
298;DHT22;133;49.626;9.680;2023-12-20T11:52:29;7.30;87.70
298;DHT22;133;49.626;9.680;2023-12-20T11:54:54;7.20;87.20
298;DHT22;133;49.626;9.680;2023-12-20T11:57:20;7.20;87.50
298;DHT22;133;49.626;9.680;2023-12-20T11:59:46;7.20;88.00
298;DHT22;133;49.626;9.680;2023-12-20T12:02:12;7.10;88.20
298;DHT22;133;49.626;9.680;2023-12-20T12:04:38;6.90;87.50
298;DHT22;133;49.626;9.680;2023-12-20T12:07:03;6.90;87.30
298;DHT22;133;49.626;9.680;2023-12-20T12:09:29;6.90;87.10
298;DHT22;133;49.626;9.680;2023-12-20T12:11:55;6.90;87.00
298;DHT22;133;49.626;9.680;2023-12-20T12:14:20;6.70;87.50
298;DHT22;133;49.626;9.680;2023-12-20T12:16:46;6.80;88.00
298;DHT22;133;49.626;9.680;2023-12-20T12:19:30;6.80;87.80
298;DHT22;133;49.626;9.680;2023-12-20T12:24:48;6.80;87.40
298;DHT22;133;49.626;9.680;2023-12-20T12:27:15;6.80;87.50
298;DHT22;133;49.626;9.680;2023-12-20T12:29:43;6.70;88.10
298;DHT22;133;49.626;9.680;2023-12-20T12:32:25;6.60;87.60
298;DHT22;133;49.626;9.680;2023-12-20T12:34:51;6.60;87.40
298;DHT22;133;49.626;9.680;2023-12-20T12:37:16;6.60;87.60
298;DHT22;133;49.626;9.680;2023-12-20T12:39:42;6.60;87.30
298;DHT22;133;49.626;9.680;2023-12-20T12:42:08;6.60;87.60
298;DHT22;133;49.626;9.680;2023-12-20T12:44:33;6.60;87.90
298;DHT22;133;49.626;9.680;2023-12-20T12:46:59;6.50;87.00
298;DHT22;133;49.626;9.680;2023-12-20T12:49:24;6.50;87.40
298;DHT22;133;49.626;9.680;2023-12-20T12:51:51;6.50;87.90
298;DHT22;133;49.626;9.680;2023-12-20T12:54:16;6.70;87.80
298;DHT22;133;49.626;9.680;2023-12-20T12:56:43;6.70;87.50
298;DHT22;133;49.626;9.680;2023-12-20T12:59:09;6.60;86.60
298;DHT22;133;49.626;9.680;2023-12-20T13:01:35;6.60;86.80
298;DHT22;133;49.626;9.680;2023-12-20T13:04:01;6.60;86.80
298;DHT22;133;49.626;9.680;2023-12-20T13:06:29;6.70;87.40
298;DHT22;133;49.626;9.680;2023-12-20T13:08:54;6.70;87.30
298;DHT22;133;49.626;9.680;2023-12-20T13:11:20;6.80;87.50
298;DHT22;133;49.626;9.680;2023-12-20T13:13:46;6.70;87.50
298;DHT22;133;49.626;9.680;2023-12-20T13:16:12;6.70;87.90
298;DHT22;133;49.626;9.680;2023-12-20T13:18:38;6.70;88.00
298;DHT22;133;49.626;9.680;2023-12-20T13:21:08;6.70;88.30
298;DHT22;133;49.626;9.680;2023-12-20T13:23:33;6.60;88.60
298;DHT22;133;49.626;9.680;2023-12-20T13:25:59;6.60;88.40
298;DHT22;133;49.626;9.680;2023-12-20T13:28:24;6.60;88.80
298;DHT22;133;49.626;9.680;2023-12-20T13:30:50;6.60;88.60
298;DHT22;133;49.626;9.680;2023-12-20T13:33:15;6.50;89.20
298;DHT22;133;49.626;9.680;2023-12-20T13:35:41;6.50;89.20
298;DHT22;133;49.626;9.680;2023-12-20T13:38:07;6.50;89.60
298;DHT22;133;49.626;9.680;2023-12-20T13:40:33;6.50;89.50
298;DHT22;133;49.626;9.680;2023-12-20T13:42:59;6.50;89.90
298;DHT22;133;49.626;9.680;2023-12-20T13:45:24;6.40;90.90
298;DHT22;133;49.626;9.680;2023-12-20T13:47:50;6.40;90.30
298;DHT22;133;49.626;9.680;2023-12-20T13:50:16;6.30;90.70
298;DHT22;133;49.626;9.680;2023-12-20T13:52:42;6.20;91.50
298;DHT22;133;49.626;9.680;2023-12-20T13:55:08;6.30;92.10
298;DHT22;133;49.626;9.680;2023-12-20T13:57:34;6.30;91.60
298;DHT22;133;49.626;9.680;2023-12-20T14:00:03;6.20;91.60
298;DHT22;133;49.626;9.680;2023-12-20T14:02:30;6.20;91.80
298;DHT22;133;49.626;9.680;2023-12-20T14:04:55;6.20;91.50
298;DHT22;133;49.626;9.680;2023-12-20T14:07:21;6.30;91.80
298;DHT22;133;49.626;9.680;2023-12-20T14:09:47;6.20;91.00
298;DHT22;133;49.626;9.680;2023-12-20T14:12:13;6.20;91.00
298;DHT22;133;49.626;9.680;2023-12-20T14:14:38;6.30;91.40
298;DHT22;133;49.626;9.680;2023-12-20T14:17:04;6.30;91.00
298;DHT22;133;49.626;9.680;2023-12-20T14:19:32;6.40;90.90
298;DHT22;133;49.626;9.680;2023-12-20T14:21:57;6.40;91.00
298;DHT22;133;49.626;9.680;2023-12-20T14:24:26;6.50;91.40
298;DHT22;133;49.626;9.680;2023-12-20T14:26:52;6.40;91.10
298;DHT22;133;49.626;9.680;2023-12-20T14:29:18;6.40;91.70
298;DHT22;133;49.626;9.680;2023-12-20T14:31:44;6.40;91.80
298;DHT22;133;49.626;9.680;2023-12-20T14:34:09;6.40;91.70
298;DHT22;133;49.626;9.680;2023-12-20T14:36:35;6.30;92.00
298;DHT22;133;49.626;9.680;2023-12-20T14:39:01;6.30;92.00
298;DHT22;133;49.626;9.680;2023-12-20T14:41:28;6.30;92.10
298;DHT22;133;49.626;9.680;2023-12-20T14:43:53;6.20;92.50
298;DHT22;133;49.626;9.680;2023-12-20T14:46:19;6.20;92.20
298;DHT22;133;49.626;9.680;2023-12-20T14:48:45;6.20;92.60
298;DHT22;133;49.626;9.680;2023-12-20T14:51:10;6.20;92.20
298;DHT22;133;49.626;9.680;2023-12-20T14:53:37;6.20;92.40
298;DHT22;133;49.626;9.680;2023-12-20T14:56:04;6.20;91.90
298;DHT22;133;49.626;9.680;2023-12-20T14:58:29;6.10;92.00
298;DHT22;133;49.626;9.680;2023-12-20T15:00:55;6.10;92.20
298;DHT22;133;49.626;9.680;2023-12-20T15:03:24;6.10;91.90
298;DHT22;133;49.626;9.680;2023-12-20T15:05:49;6.10;92.00
298;DHT22;133;49.626;9.680;2023-12-20T15:08:15;6.00;92.30
298;DHT22;133;49.626;9.680;2023-12-20T15:10:41;5.90;92.40
298;DHT22;133;49.626;9.680;2023-12-20T15:13:07;5.90;92.70
298;DHT22;133;49.626;9.680;2023-12-20T15:15:32;5.90;92.70
298;DHT22;133;49.626;9.680;2023-12-20T15:18:02;5.80;92.80
298;DHT22;133;49.626;9.680;2023-12-20T15:20:30;5.80;93.10
298;DHT22;133;49.626;9.680;2023-12-20T15:22:58;5.80;93.10
298;DHT22;133;49.626;9.680;2023-12-20T15:25:30;5.80;93.00
298;DHT22;133;49.626;9.680;2023-12-20T15:27:56;5.80;93.30
298;DHT22;133;49.626;9.680;2023-12-20T15:30:21;5.80;93.10
298;DHT22;133;49.626;9.680;2023-12-20T15:32:49;5.80;93.30
298;DHT22;133;49.626;9.680;2023-12-20T15:35:15;5.80;93.30
298;DHT22;133;49.626;9.680;2023-12-20T15:37:41;5.80;93.40
298;DHT22;133;49.626;9.680;2023-12-20T15:40:10;5.70;93.70
298;DHT22;133;49.626;9.680;2023-12-20T15:42:37;5.80;93.60
298;DHT22;133;49.626;9.680;2023-12-20T15:45:04;5.70;93.60
298;DHT22;133;49.626;9.680;2023-12-20T15:47:30;5.70;93.70
298;DHT22;133;49.626;9.680;2023-12-20T15:49:55;5.70;93.60
298;DHT22;133;49.626;9.680;2023-12-20T15:52:21;5.70;93.50
298;DHT22;133;49.626;9.680;2023-12-20T15:54:47;5.70;93.40
298;DHT22;133;49.626;9.680;2023-12-20T15:57:13;5.60;93.60
298;DHT22;133;49.626;9.680;2023-12-20T15:59:43;5.60;93.80
298;DHT22;133;49.626;9.680;2023-12-20T16:02:09;5.60;94.00
298;DHT22;133;49.626;9.680;2023-12-20T16:04:35;5.50;93.80
298;DHT22;133;49.626;9.680;2023-12-20T16:07:01;5.60;93.80
298;DHT22;133;49.626;9.680;2023-12-20T16:09:26;5.60;93.90
298;DHT22;133;49.626;9.680;2023-12-20T16:11:52;5.60;93.80
298;DHT22;133;49.626;9.680;2023-12-20T16:14:18;5.60;93.70
298;DHT22;133;49.626;9.680;2023-12-20T16:16:45;5.60;94.00
298;DHT22;133;49.626;9.680;2023-12-20T16:19:11;5.60;93.80
298;DHT22;133;49.626;9.680;2023-12-20T16:21:36;5.60;93.80
298;DHT22;133;49.626;9.680;2023-12-20T16:24:02;5.60;93.70
298;DHT22;133;49.626;9.680;2023-12-20T16:26:28;5.60;93.80
298;DHT22;133;49.626;9.680;2023-12-20T16:28:54;5.70;93.80
298;DHT22;133;49.626;9.680;2023-12-20T16:31:20;5.80;93.60
298;DHT22;133;49.626;9.680;2023-12-20T16:33:45;5.70;93.20
298;DHT22;133;49.626;9.680;2023-12-20T16:36:11;5.80;93.40
298;DHT22;133;49.626;9.680;2023-12-20T16:38:36;5.80;93.40
298;DHT22;133;49.626;9.680;2023-12-20T16:41:02;5.80;93.30
298;DHT22;133;49.626;9.680;2023-12-20T16:43:28;5.80;93.00
298;DHT22;133;49.626;9.680;2023-12-20T16:45:54;5.80;92.80
298;DHT22;133;49.626;9.680;2023-12-20T16:48:20;5.90;92.70
298;DHT22;133;49.626;9.680;2023-12-20T16:50:45;5.90;92.50
298;DHT22;133;49.626;9.680;2023-12-20T16:53:11;5.90;92.50
298;DHT22;133;49.626;9.680;2023-12-20T16:55:37;5.90;92.40